createdAt,value
2019-05-06T00:01:04.636Z,52.20
2019-05-06T00:02:13.667Z,51.62
2019-05-06T00:03:21.503Z,51.49
2019-05-06T00:04:29.750Z,51.66
2019-05-06T00:05:37.813Z,51.83
2019-05-06T00:06:46.097Z,51.34
2019-05-06T00:07:54.907Z,51.53
2019-05-06T00:09:03.961Z,51.63
2019-05-06T00:10:27.656Z,51.82
2019-05-06T00:11:35.697Z,52.14
2019-05-06T00:12:44.490Z,51.98
2019-05-06T00:13:54.340Z,51.89
2019-05-06T00:15:03.976Z,51.77
2019-05-06T00:16:14.335Z,51.93
2019-05-06T00:17:23.949Z,52.41
2019-05-06T00:18:34.243Z,52.26
2019-05-06T00:19:41.458Z,52.30
2019-05-06T00:20:49.418Z,52.44
2019-05-06T00:21:57.468Z,52.64
2019-05-06T00:23:07.030Z,52.45
2019-05-06T00:24:15.053Z,52.26
2019-05-06T00:25:40.702Z,52.11
2019-05-06T00:26:57.265Z,52.34
2019-05-06T00:28:21.455Z,52.50
2019-05-06T00:29:30.340Z,52.46
2019-05-06T00:30:40.136Z,51.77
2019-05-06T00:31:48.357Z,52.25
2019-05-06T00:32:56.189Z,52.12
2019-05-06T00:34:04.565Z,51.88
2019-05-06T00:35:14.230Z,51.81
2019-05-06T00:36:23.725Z,51.92
2019-05-06T00:37:32.019Z,51.77
2019-05-06T00:38:41.108Z,51.77
2019-05-06T00:39:48.905Z,51.80
2019-05-06T00:41:01.223Z,51.58
2019-05-06T00:42:20.056Z,51.85
2019-05-06T00:43:27.917Z,51.83
2019-05-06T00:44:35.779Z,51.91
2019-05-06T00:45:44.379Z,51.98
2019-05-06T00:46:54.473Z,51.73
2019-05-06T00:48:04.507Z,51.83
2019-05-06T00:49:11.935Z,51.68
2019-05-06T00:50:19.927Z,51.61
2019-05-06T00:51:28.005Z,51.91
2019-05-06T00:52:37.010Z,51.96
2019-05-06T00:53:50.366Z,52.23
2019-05-06T00:54:58.538Z,52.30
2019-05-06T00:56:06.490Z,51.49
2019-05-06T00:57:14.548Z,51.46
2019-05-06T00:58:23.815Z,51.16
2019-05-06T00:59:34.413Z,51.07
2019-05-06T01:00:44.165Z,50.80
2019-05-06T01:01:53.740Z,50.99
2019-05-06T01:03:01.487Z,51.05
2019-05-06T01:04:09.472Z,50.83
2019-05-06T01:05:18.391Z,51.11
2019-05-06T01:06:26.718Z,50.49
2019-05-06T01:07:34.830Z,49.79
2019-05-06T01:08:44.020Z,49.89
2019-05-06T01:09:54.195Z,50.18
2019-05-06T01:11:04.047Z,50.10
2019-05-06T01:12:14.218Z,49.63
2019-05-06T01:13:35.600Z,49.92
2019-05-06T01:14:45.587Z,49.44
2019-05-06T01:15:54.752Z,49.80
2019-05-06T01:17:03.980Z,48.96
2019-05-06T01:18:13.801Z,48.83
2019-05-06T01:19:23.542Z,49.17
2019-05-06T01:20:33.787Z,48.92
2019-05-06T01:21:41.628Z,49.31
2019-05-06T01:22:50.333Z,48.90
2019-05-06T01:23:58.428Z,49.24
2019-05-06T01:25:08.194Z,49.36
2019-05-06T01:26:18.315Z,49.01
2019-05-06T01:27:26.376Z,49.25
2019-05-06T01:28:34.429Z,49.24
2019-05-06T01:29:44.118Z,48.80
2019-05-06T01:30:53.563Z,48.79
2019-05-06T01:32:03.552Z,48.61
2019-05-06T01:33:11.575Z,48.55
2019-05-06T01:34:19.416Z,47.95
2019-05-06T01:35:27.231Z,48.36
2019-05-06T01:36:35.328Z,48.61
2019-05-06T01:37:45.079Z,48.21
2019-05-06T01:39:11.134Z,48.70
2019-05-06T01:40:36.380Z,48.26
2019-05-06T01:41:44.736Z,47.87
2019-05-06T01:42:54.460Z,48.47
2019-05-06T01:44:04.220Z,48.41
2019-05-06T01:45:14.170Z,48.06
2019-05-06T01:46:24.289Z,48.35
2019-05-06T01:47:34.448Z,48.19
2019-05-06T01:48:48.746Z,47.74
2019-05-06T01:49:56.884Z,48.31
2019-05-06T01:51:05.075Z,48.19
2019-05-06T01:52:14.714Z,47.71
2019-05-06T01:53:24.148Z,47.95
2019-05-06T01:54:34.161Z,47.94
2019-05-06T01:55:43.685Z,48.23
2019-05-06T01:56:53.674Z,48.14
2019-05-06T01:58:01.632Z,48.33
2019-05-06T01:59:09.813Z,48.59
2019-05-06T02:00:17.852Z,48.65
2019-05-06T02:01:26.075Z,48.26
2019-05-06T02:02:34.339Z,48.21
2019-05-06T02:03:44.159Z,48.52
2019-05-06T02:04:53.520Z,47.97
2019-05-06T02:06:01.623Z,47.81
2019-05-06T02:07:09.740Z,47.80
2019-05-06T02:08:17.802Z,48.18
2019-05-06T02:09:25.719Z,48.40
2019-05-06T02:10:34.945Z,48.29
2019-05-06T02:11:44.441Z,48.18
2019-05-06T02:12:54.060Z,48.27
2019-05-06T02:14:04.590Z,48.43
2019-05-06T02:15:14.470Z,48.26
2019-05-06T02:16:23.903Z,48.55
2019-05-06T02:17:31.527Z,48.76
2019-05-06T02:18:39.648Z,48.64
2019-05-06T02:19:47.943Z,48.21
2019-05-06T02:21:05.435Z,48.48
2019-05-06T02:22:15.455Z,48.69
2019-05-06T02:23:37.264Z,49.11
2019-05-06T02:24:46.796Z,48.82
2019-05-06T02:25:55.543Z,49.04
2019-05-06T02:27:04.505Z,49.14
2019-05-06T02:28:14.309Z,48.93
2019-05-06T02:29:27.068Z,48.76
2019-05-06T02:30:45.421Z,48.89
2019-05-06T02:32:16.171Z,48.78
2019-05-06T02:33:17.885Z,48.90
2019-05-06T02:34:46.033Z,48.69
2019-05-06T02:36:14.918Z,48.97
2019-05-06T02:37:35.075Z,49.16
2019-05-06T02:38:50.439Z,49.11
2019-05-06T02:39:53.752Z,48.93
2019-05-06T02:41:03.439Z,49.07
2019-05-06T02:42:13.037Z,49.12
2019-05-06T02:43:23.226Z,48.89
2019-05-06T02:44:33.616Z,48.85
2019-05-06T02:45:43.292Z,49.05
2019-05-06T02:46:53.372Z,49.15
2019-05-06T02:48:09.214Z,49.26
2019-05-06T02:49:36.714Z,49.39
2019-05-06T02:50:44.436Z,49.29
2019-05-06T02:51:53.434Z,49.31
2019-05-06T02:53:02.678Z,49.33
2019-05-06T02:54:13.388Z,49.43
2019-05-06T02:55:23.387Z,49.42
2019-05-06T02:56:33.351Z,49.49
2019-05-06T02:57:43.672Z,49.49
2019-05-06T02:58:53.529Z,49.50
2019-05-06T03:00:04.755Z,49.54
2019-05-06T03:01:13.381Z,49.36
2019-05-06T03:02:35.581Z,49.25
2019-05-06T03:03:29.358Z,49.13
2019-05-06T03:04:37.260Z,49.03
2019-05-06T03:05:45.283Z,49.16
2019-05-06T03:06:53.466Z,49.07
2019-05-06T03:08:03.274Z,49.11
2019-05-06T03:09:13.476Z,49.16
2019-05-06T03:10:24.664Z,49.00
2019-05-06T03:11:33.196Z,49.24
2019-05-06T03:12:43.039Z,49.14
2019-05-06T03:13:53.505Z,49.32
2019-05-06T03:15:03.330Z,49.57
2019-05-06T03:16:10.312Z,49.57
2019-05-06T03:17:18.511Z,49.29
2019-05-06T03:18:26.489Z,49.47
2019-05-06T03:19:36.328Z,49.38
2019-05-06T03:20:57.488Z,49.34
2019-05-06T03:22:13.155Z,49.14
2019-05-06T03:23:24.670Z,49.14
2019-05-06T03:24:37.340Z,49.31
2019-05-06T03:25:48.054Z,49.45
2019-05-06T03:26:56.825Z,49.39
2019-05-06T03:28:05.601Z,49.17
2019-05-06T03:29:14.003Z,49.36
2019-05-06T03:30:25.457Z,49.43
2019-05-06T03:31:36.506Z,49.65
2019-05-06T03:33:21.552Z,49.82
2019-05-06T03:34:16.195Z,49.68
2019-05-06T03:35:25.764Z,49.69
2019-05-06T03:36:23.693Z,49.73
2019-05-06T03:37:23.888Z,49.91
2019-05-06T03:38:33.501Z,49.85
2019-05-06T03:39:43.430Z,49.80
2019-05-06T03:40:53.796Z,49.73
2019-05-06T03:42:04.221Z,49.79
2019-05-06T03:43:13.669Z,49.68
2019-05-06T03:44:23.627Z,49.56
2019-05-06T03:45:33.575Z,49.65
2019-05-06T03:46:45.883Z,49.95
2019-05-06T03:48:05.509Z,50.18
2019-05-06T03:49:13.511Z,50.21
2019-05-06T03:50:24.053Z,50.07
2019-05-06T03:51:34.287Z,50.14
2019-05-06T03:52:43.010Z,50.08
2019-05-06T03:53:54.319Z,49.98
2019-05-06T03:55:03.671Z,49.90
2019-05-06T03:56:16.852Z,49.66
2019-05-06T03:57:24.364Z,49.53
2019-05-06T03:58:35.998Z,49.40
2019-05-06T03:59:45.149Z,49.31
2019-05-06T04:00:54.975Z,49.38
2019-05-06T04:02:05.165Z,49.43
2019-05-06T04:03:14.050Z,49.59
2019-05-06T04:04:23.355Z,49.62
2019-05-06T04:05:33.424Z,49.59
2019-05-06T04:06:43.651Z,49.50
2019-05-06T04:07:53.364Z,49.48
2019-05-06T04:09:03.632Z,49.72
2019-05-06T04:10:13.632Z,49.85
2019-05-06T04:11:23.962Z,49.77
2019-05-06T04:12:34.988Z,49.72
2019-05-06T04:13:43.669Z,49.79
2019-05-06T04:14:53.983Z,49.55
2019-05-06T04:16:08.398Z,49.52
2019-05-06T04:17:24.562Z,49.45
2019-05-06T04:18:37.199Z,49.41
2019-05-06T04:19:46.953Z,49.30
2019-05-06T04:20:57.971Z,49.33
2019-05-06T04:22:07.718Z,49.25
2019-05-06T04:23:17.773Z,48.86
2019-05-06T04:24:25.857Z,48.73
2019-05-06T04:25:39.540Z,48.89
2019-05-06T04:26:58.123Z,48.67
2019-05-06T04:28:08.298Z,48.64
2019-05-06T04:29:17.231Z,48.84
2019-05-06T04:30:25.069Z,48.94
2019-05-06T04:31:33.873Z,48.86
2019-05-06T04:32:43.383Z,48.57
2019-05-06T04:34:08.684Z,48.42
2019-05-06T04:35:04.448Z,48.20
2019-05-06T04:36:13.237Z,48.29
2019-05-06T04:37:23.917Z,48.28
2019-05-06T04:38:33.502Z,48.57
2019-05-06T04:39:43.394Z,48.31
2019-05-06T04:40:53.795Z,48.22
2019-05-06T04:42:03.547Z,48.05
2019-05-06T04:43:13.367Z,48.20
2019-05-06T04:44:23.765Z,47.93
2019-05-06T04:45:33.737Z,47.79
2019-05-06T04:46:44.294Z,47.93
2019-05-06T04:47:53.724Z,47.61
2019-05-06T04:49:04.060Z,47.54
2019-05-06T04:50:13.340Z,47.22
2019-05-06T04:51:24.816Z,47.36
2019-05-06T04:52:34.163Z,47.18
2019-05-06T04:53:44.011Z,47.67
2019-05-06T04:54:53.382Z,47.70
2019-05-06T04:56:03.896Z,47.14
2019-05-06T04:57:12.901Z,47.03
2019-05-06T04:58:23.277Z,46.88
2019-05-06T04:59:32.566Z,47.05
2019-05-06T05:00:44.085Z,46.96
2019-05-06T05:01:53.193Z,46.67
2019-05-06T05:03:03.042Z,46.68
2019-05-06T05:04:24.549Z,46.78
2019-05-06T05:05:22.996Z,46.95
2019-05-06T05:06:32.863Z,46.67
2019-05-06T05:07:42.579Z,46.59
2019-05-06T05:08:53.036Z,46.54
2019-05-06T05:10:03.606Z,46.50
2019-05-06T05:11:23.766Z,46.65
2019-05-06T05:12:45.611Z,46.87
2019-05-06T05:13:55.703Z,46.05
2019-05-06T05:15:05.612Z,46.49
2019-05-06T05:16:22.281Z,46.48
2019-05-06T05:17:33.098Z,46.88
2019-05-06T05:18:54.794Z,46.90
2019-05-06T05:20:03.162Z,46.84
2019-05-06T05:21:11.903Z,46.43
2019-05-06T05:22:21.847Z,46.10
2019-05-06T05:23:31.824Z,45.79
2019-05-06T05:24:39.681Z,45.79
2019-05-06T05:25:48.068Z,46.00
2019-05-06T05:26:56.419Z,46.50
2019-05-06T05:28:04.613Z,46.36
2019-05-06T05:29:12.842Z,45.73
2019-05-06T05:30:21.984Z,45.63
2019-05-06T05:31:30.276Z,45.83
2019-05-06T05:32:38.228Z,45.24
2019-05-06T05:33:46.414Z,45.48
2019-05-06T05:34:54.682Z,45.19
2019-05-06T05:36:02.566Z,45.80
2019-05-06T05:37:12.141Z,46.26
2019-05-06T05:38:22.766Z,46.00
2019-05-06T05:39:30.583Z,46.38
2019-05-06T05:40:39.041Z,45.64
2019-05-06T05:41:47.247Z,45.74
2019-05-06T05:43:06.337Z,46.01
2019-05-06T05:44:18.933Z,46.33
2019-05-06T05:45:27.247Z,46.34
2019-05-06T05:46:35.260Z,46.33
2019-05-06T05:47:43.695Z,46.51
2019-05-06T05:48:59.558Z,46.20
2019-05-06T05:50:28.123Z,45.39
2019-05-06T05:51:36.537Z,45.37
2019-05-06T05:52:45.056Z,45.78
2019-05-06T05:53:53.194Z,45.83
2019-05-06T05:55:02.724Z,45.56
2019-05-06T05:56:12.352Z,45.41
2019-05-06T05:57:22.602Z,45.68
2019-05-06T05:58:32.973Z,45.68
2019-05-06T05:59:42.244Z,45.24
2019-05-06T06:00:52.086Z,45.61
2019-05-06T06:02:00.463Z,45.85
2019-05-06T06:03:09.059Z,45.38
2019-05-06T06:04:17.286Z,45.06
2019-05-06T06:05:25.460Z,45.22
2019-05-06T06:06:33.809Z,45.09
2019-05-06T06:07:42.310Z,45.35
2019-05-06T06:08:52.353Z,45.66
2019-05-06T06:10:04.796Z,45.43
2019-05-06T06:11:14.796Z,45.11
2019-05-06T06:12:23.459Z,44.91
2019-05-06T06:13:32.070Z,45.08
2019-05-06T06:14:40.416Z,45.14
2019-05-06T06:15:52.809Z,45.05
2019-05-06T06:17:02.685Z,45.10
2019-05-06T06:18:25.777Z,45.01
2019-05-06T06:19:47.888Z,44.77
2019-05-06T06:21:17.580Z,44.60
2019-05-06T06:22:19.994Z,44.53
2019-05-06T06:23:32.473Z,44.20
2019-05-06T06:24:42.803Z,44.59
2019-05-06T06:25:52.771Z,44.11
2019-05-06T06:27:02.895Z,44.51
2019-05-06T06:28:11.960Z,44.28
2019-05-06T06:29:19.982Z,44.21
2019-05-06T06:30:29.627Z,44.06
2019-05-06T06:31:39.995Z,45.61
2019-05-06T06:32:48.454Z,44.61
2019-05-06T06:33:58.738Z,44.70
2019-05-06T06:35:14.167Z,43.86
2019-05-06T06:36:38.840Z,43.61
2019-05-06T06:37:48.671Z,43.92
2019-05-06T06:38:58.320Z,44.00
2019-05-06T06:40:13.084Z,44.22
2019-05-06T06:41:22.792Z,44.31
2019-05-06T06:42:33.362Z,43.82
2019-05-06T06:43:42.125Z,43.42
2019-05-06T06:44:52.074Z,44.07
2019-05-06T06:46:02.526Z,43.99
2019-05-06T06:47:12.427Z,44.18
2019-05-06T06:48:22.804Z,44.11
2019-05-06T06:49:32.738Z,43.75
2019-05-06T06:50:42.578Z,43.76
2019-05-06T06:51:53.246Z,44.12
2019-05-06T06:53:03.009Z,43.62
2019-05-06T06:54:12.295Z,43.63
2019-05-06T06:55:22.407Z,43.49
2019-05-06T06:56:32.982Z,43.58
2019-05-06T06:57:52.753Z,43.87
2019-05-06T06:59:16.632Z,44.27
2019-05-06T07:00:26.204Z,43.45
2019-05-06T07:01:36.750Z,43.76
2019-05-06T07:02:49.633Z,43.85
2019-05-06T07:04:06.796Z,43.74
2019-05-06T07:05:28.326Z,43.34
2019-05-06T07:06:42.335Z,43.20
2019-05-06T07:07:52.920Z,43.16
2019-05-06T07:09:00.259Z,43.08
2019-05-06T07:10:27.374Z,42.78
2019-05-06T07:11:35.483Z,42.78
2019-05-06T07:12:43.393Z,43.30
2019-05-06T07:13:55.624Z,43.32
2019-05-06T07:15:04.165Z,43.23
2019-05-06T07:16:12.390Z,42.37
2019-05-06T07:17:22.715Z,42.45
2019-05-06T07:18:30.288Z,43.12
2019-05-06T07:19:42.141Z,43.32
2019-05-06T07:20:54.296Z,42.23
2019-05-06T07:22:02.917Z,41.82
2019-05-06T07:23:28.897Z,42.10
2019-05-06T07:24:37.132Z,42.66
2019-05-06T07:25:45.439Z,43.19
2019-05-06T07:27:04.851Z,41.22
2019-05-06T07:28:13.592Z,40.91
2019-05-06T07:29:26.351Z,40.68
2019-05-06T07:30:33.269Z,41.03
2019-05-06T07:31:42.643Z,40.80
2019-05-06T07:32:52.741Z,40.74
2019-05-06T07:34:02.599Z,39.81
2019-05-06T07:35:12.887Z,40.17
2019-05-06T07:36:22.694Z,40.14
2019-05-06T07:37:32.640Z,40.39
2019-05-06T07:38:42.753Z,40.21
2019-05-06T07:39:52.947Z,40.01
2019-05-06T07:41:14.844Z,39.95
2019-05-06T07:42:23.056Z,40.52
2019-05-06T07:43:33.930Z,40.47
2019-05-06T07:45:00.133Z,40.35
2019-05-06T07:46:15.938Z,40.77
2019-05-06T07:47:33.166Z,40.33
2019-05-06T07:48:42.768Z,40.69
2019-05-06T07:49:53.045Z,40.14
2019-05-06T07:51:02.900Z,40.38
2019-05-06T07:52:12.348Z,40.59
2019-05-06T07:53:19.953Z,39.91
2019-05-06T07:54:27.895Z,40.16
2019-05-06T07:55:36.837Z,40.30
2019-05-06T07:56:45.052Z,40.02
2019-05-06T07:57:53.569Z,40.39
2019-05-06T07:59:03.277Z,40.61
2019-05-06T08:00:12.552Z,41.23
2019-05-06T08:01:25.502Z,40.84
2019-05-06T08:02:32.109Z,40.35
2019-05-06T08:03:42.605Z,39.92
2019-05-06T08:04:52.941Z,39.64
2019-05-06T08:06:02.523Z,39.78
2019-05-06T08:07:12.374Z,39.17
2019-05-06T08:08:19.931Z,38.80
2019-05-06T08:09:27.976Z,38.97
2019-05-06T08:10:35.975Z,39.32
2019-05-06T08:11:44.112Z,38.83
2019-05-06T08:12:52.735Z,39.03
2019-05-06T08:14:02.191Z,38.56
2019-05-06T08:15:12.699Z,39.01
2019-05-06T08:16:22.580Z,39.10
2019-05-06T08:17:33.056Z,39.38
2019-05-06T08:18:42.533Z,39.72
2019-05-06T08:19:52.957Z,39.56
2019-05-06T08:21:03.604Z,39.45
2019-05-06T08:22:16.036Z,39.37
2019-05-06T08:23:32.540Z,39.11
2019-05-06T08:24:42.276Z,39.03
2019-05-06T08:25:54.303Z,38.65
2019-05-06T08:27:02.903Z,38.86
2019-05-06T08:28:13.245Z,38.73
2019-05-06T08:29:22.491Z,38.67
2019-05-06T08:30:32.374Z,37.63
2019-05-06T08:31:42.945Z,37.70
2019-05-06T08:32:50.210Z,37.96
2019-05-06T08:33:58.913Z,37.88
2019-05-06T08:35:10.034Z,37.32
2019-05-06T08:36:29.016Z,37.72
2019-05-06T08:37:38.771Z,37.79
2019-05-06T08:39:02.539Z,37.12
2019-05-06T08:40:11.996Z,37.09
2019-05-06T08:41:22.641Z,37.42
2019-05-06T08:42:30.356Z,38.41
2019-05-06T08:43:38.406Z,38.37
2019-05-06T08:44:46.599Z,39.01
2019-05-06T08:45:54.961Z,37.33
2019-05-06T08:47:02.856Z,36.51
2019-05-06T08:48:12.842Z,36.18
2019-05-06T08:49:22.533Z,36.61
2019-05-06T08:50:36.219Z,36.92
2019-05-06T08:51:45.923Z,36.90
2019-05-06T08:53:06.131Z,37.02
2019-05-06T08:54:22.729Z,36.39
2019-05-06T08:55:32.720Z,36.29
2019-05-06T08:56:42.719Z,36.47
2019-05-06T08:57:52.729Z,36.02
2019-05-06T08:59:00.159Z,36.50
2019-05-06T09:00:08.567Z,35.41
2019-05-06T09:01:35.958Z,35.75
2019-05-06T09:02:46.164Z,35.03
2019-05-06T09:04:06.439Z,34.31
2019-05-06T09:05:03.461Z,34.71
2019-05-06T09:06:26.033Z,34.71
2019-05-06T09:07:21.426Z,35.33
2019-05-06T09:08:32.447Z,36.28
2019-05-06T09:09:42.110Z,35.77
2019-05-06T09:10:52.129Z,35.46
2019-05-06T09:12:02.487Z,35.95
2019-05-06T09:13:12.329Z,35.81
2019-05-06T09:14:22.928Z,36.21
2019-05-06T09:15:32.553Z,35.75
2019-05-06T09:16:43.780Z,36.15
2019-05-06T09:17:52.600Z,35.57
2019-05-06T09:19:04.363Z,34.96
2019-05-06T09:20:12.914Z,35.41
2019-05-06T09:21:22.676Z,34.96
2019-05-06T09:22:32.442Z,34.62
2019-05-06T09:23:42.206Z,35.03
2019-05-06T09:24:49.969Z,35.31
2019-05-06T09:25:58.352Z,35.22
2019-05-06T09:27:12.289Z,34.41
2019-05-06T09:28:33.753Z,35.14
2019-05-06T09:29:43.036Z,35.43
2019-05-06T09:30:53.011Z,35.15
2019-05-06T09:32:02.626Z,34.75
2019-05-06T09:33:12.836Z,34.96
2019-05-06T09:34:20.245Z,35.63
2019-05-06T09:35:28.451Z,35.74
2019-05-06T09:36:43.746Z,35.33
2019-05-06T09:37:46.188Z,35.54
2019-05-06T09:38:54.891Z,35.97
2019-05-06T09:40:03.185Z,36.01
2019-05-06T09:41:12.447Z,35.76
2019-05-06T09:42:23.070Z,35.25
2019-05-06T09:43:32.810Z,35.64
2019-05-06T09:44:42.675Z,34.58
2019-05-06T09:45:52.840Z,34.78
2019-05-06T09:47:02.403Z,34.33
2019-05-06T09:48:28.535Z,34.55
2019-05-06T09:49:38.374Z,35.14
2019-05-06T09:50:47.790Z,35.34
2019-05-06T09:51:56.223Z,35.78
2019-05-06T09:53:04.815Z,35.69
2019-05-06T09:54:23.355Z,35.66
2019-05-06T09:55:48.764Z,35.91
2019-05-06T09:56:58.651Z,36.10
2019-05-06T09:58:08.343Z,36.26
2019-05-06T09:59:16.743Z,36.02
2019-05-06T10:00:25.591Z,35.99
2019-05-06T10:01:33.597Z,35.74
2019-05-06T10:02:42.983Z,35.76
2019-05-06T10:03:52.934Z,35.79
2019-05-06T10:05:03.617Z,35.92
2019-05-06T10:06:13.115Z,36.30
2019-05-06T10:07:22.574Z,36.05
2019-05-06T10:08:32.326Z,35.46
2019-05-06T10:09:43.213Z,35.62
2019-05-06T10:10:58.570Z,35.37
2019-05-06T10:12:02.058Z,35.44
2019-05-06T10:13:09.977Z,35.61
2019-05-06T10:14:18.176Z,35.88
2019-05-06T10:15:26.810Z,35.95
2019-05-06T10:16:34.964Z,36.06
2019-05-06T10:17:43.170Z,36.23
2019-05-06T10:18:52.425Z,36.09
2019-05-06T10:20:02.896Z,36.11
2019-05-06T10:21:12.353Z,36.36
2019-05-06T10:22:20.163Z,36.07
2019-05-06T10:23:28.683Z,36.15
2019-05-06T10:24:36.928Z,36.54
2019-05-06T10:25:45.644Z,36.72
2019-05-06T10:26:58.143Z,36.35
2019-05-06T10:28:14.941Z,36.71
2019-05-06T10:29:24.733Z,36.59
2019-05-06T10:30:33.260Z,36.72
2019-05-06T10:31:43.167Z,36.74
2019-05-06T10:32:53.203Z,36.77
2019-05-06T10:34:13.969Z,36.84
2019-05-06T10:35:22.497Z,36.48
2019-05-06T10:36:36.751Z,36.47
2019-05-06T10:38:08.654Z,36.28
2019-05-06T10:39:20.029Z,36.14
2019-05-06T10:40:35.378Z,36.49
2019-05-06T10:41:47.952Z,36.57
2019-05-06T10:43:12.338Z,36.84
2019-05-06T10:44:32.867Z,36.91
2019-05-06T10:45:42.542Z,37.07
2019-05-06T10:46:52.447Z,36.65
2019-05-06T10:48:02.201Z,36.53
2019-05-06T10:49:09.843Z,36.70
2019-05-06T10:50:18.157Z,36.59
2019-05-06T10:51:38.060Z,36.83
2019-05-06T10:52:51.861Z,36.80
2019-05-06T10:53:59.860Z,37.02
2019-05-06T10:55:08.460Z,37.28
2019-05-06T10:56:27.905Z,37.57
2019-05-06T10:57:40.517Z,37.42
2019-05-06T10:58:48.505Z,37.27
2019-05-06T10:59:56.442Z,37.30
2019-05-06T11:01:16.044Z,37.24
2019-05-06T11:02:25.808Z,37.14
2019-05-06T11:03:33.868Z,37.31
2019-05-06T11:04:42.585Z,37.38
2019-05-06T11:05:53.443Z,37.39
2019-05-06T11:07:03.852Z,37.42
2019-05-06T11:08:10.914Z,37.24
2019-05-06T11:09:19.315Z,37.29
2019-05-06T11:10:33.973Z,37.61
2019-05-06T11:11:38.664Z,37.50
2019-05-06T11:12:46.764Z,37.34
2019-05-06T11:13:55.232Z,37.30
2019-05-06T11:15:03.749Z,37.28
2019-05-06T11:16:12.937Z,37.42
2019-05-06T11:17:23.275Z,37.50
2019-05-06T11:18:33.142Z,36.83
2019-05-06T11:19:42.635Z,36.80
2019-05-06T11:20:55.798Z,36.74
2019-05-06T11:22:00.473Z,37.02
2019-05-06T11:23:08.659Z,36.75
2019-05-06T11:24:17.279Z,36.76
2019-05-06T11:25:25.178Z,36.48
2019-05-06T11:26:33.357Z,36.55
2019-05-06T11:27:44.923Z,36.00
2019-05-06T11:28:53.122Z,36.03
2019-05-06T11:30:02.988Z,36.26
2019-05-06T11:31:18.544Z,35.60
2019-05-06T11:32:32.601Z,35.41
2019-05-06T11:33:49.268Z,35.64
2019-05-06T11:34:59.105Z,35.26
2019-05-06T11:36:25.030Z,35.38
2019-05-06T11:37:50.525Z,35.58
2019-05-06T11:38:56.789Z,35.49
2019-05-06T11:40:06.543Z,35.70
2019-05-06T11:41:14.597Z,35.78
2019-05-06T11:42:31.874Z,35.70
2019-05-06T11:43:32.714Z,35.73
2019-05-06T11:44:43.765Z,35.57
2019-05-06T11:45:52.163Z,35.75
2019-05-06T11:47:03.196Z,35.89
2019-05-06T11:48:14.301Z,35.73
2019-05-06T11:49:20.334Z,35.39
2019-05-06T11:50:28.256Z,35.21
2019-05-06T11:51:36.560Z,35.33
2019-05-06T11:52:44.557Z,35.23
2019-05-06T11:53:54.122Z,34.71
2019-05-06T11:55:02.528Z,34.59
2019-05-06T11:56:12.587Z,34.04
2019-05-06T11:57:20.600Z,33.98
2019-05-06T11:58:42.469Z,33.53
2019-05-06T11:59:52.578Z,33.42
2019-05-06T12:01:02.721Z,33.50
2019-05-06T12:02:15.686Z,33.14
2019-05-06T12:03:23.817Z,32.76
2019-05-06T12:04:32.939Z,33.07
2019-05-06T12:05:41.852Z,33.36
2019-05-06T12:06:52.448Z,33.20
2019-05-06T12:08:07.244Z,32.24
2019-05-06T12:09:16.021Z,32.47
2019-05-06T12:10:22.487Z,32.43
2019-05-06T12:11:30.898Z,33.55
2019-05-06T12:12:39.531Z,33.17
2019-05-06T12:13:48.107Z,32.89
2019-05-06T12:14:56.119Z,32.62
2019-05-06T12:16:04.536Z,32.99
2019-05-06T12:17:12.863Z,32.54
2019-05-06T12:18:23.085Z,32.50
2019-05-06T12:19:32.412Z,31.92
2019-05-06T12:20:42.598Z,32.40
2019-05-06T12:21:50.530Z,32.59
2019-05-06T12:22:58.837Z,32.60
2019-05-06T12:24:06.831Z,31.72
2019-05-06T12:25:15.766Z,31.88
2019-05-06T12:26:23.977Z,32.29
2019-05-06T12:27:47.648Z,32.83
2019-05-06T12:28:55.739Z,32.79
2019-05-06T12:30:06.032Z,33.14
2019-05-06T12:31:14.142Z,33.35
2019-05-06T12:32:26.697Z,32.39
2019-05-06T12:33:36.426Z,32.29
2019-05-06T12:34:44.657Z,32.82
2019-05-06T12:35:52.792Z,32.56
2019-05-06T12:37:02.733Z,33.08
2019-05-06T12:38:26.732Z,32.71
2019-05-06T12:39:23.932Z,32.40
2019-05-06T12:40:32.165Z,32.58
2019-05-06T12:41:53.265Z,33.04
2019-05-06T12:43:18.454Z,32.97
2019-05-06T12:44:26.793Z,32.65
2019-05-06T12:45:39.546Z,32.48
2019-05-06T12:46:52.900Z,32.51
2019-05-06T12:48:05.757Z,32.89
2019-05-06T12:49:13.862Z,32.71
2019-05-06T12:50:22.763Z,32.77
2019-05-06T12:51:32.314Z,32.77
2019-05-06T12:52:44.206Z,33.06
2019-05-06T12:53:52.929Z,33.56
2019-05-06T12:55:17.041Z,33.88
2019-05-06T12:56:12.551Z,34.21
2019-05-06T12:57:23.190Z,34.04
2019-05-06T12:58:31.760Z,34.19
2019-05-06T12:59:42.336Z,33.78
2019-05-06T13:00:49.927Z,33.71
2019-05-06T13:01:58.187Z,33.86
2019-05-06T13:03:06.501Z,34.03
2019-05-06T13:04:14.486Z,33.87
2019-05-06T13:05:22.496Z,34.01
2019-05-06T13:06:30.368Z,33.93
2019-05-06T13:07:41.981Z,34.12
2019-05-06T13:08:58.782Z,34.03
2019-05-06T13:10:02.819Z,34.24
2019-05-06T13:11:12.970Z,33.98
2019-05-06T13:12:23.177Z,34.12
2019-05-06T13:13:33.198Z,34.42
2019-05-06T13:14:43.071Z,34.55
2019-05-06T13:15:52.773Z,34.91
2019-05-06T13:17:02.709Z,34.76
2019-05-06T13:18:10.935Z,34.77
2019-05-06T13:19:19.255Z,34.85
2019-05-06T13:20:27.230Z,34.71
2019-05-06T13:21:35.481Z,35.03
2019-05-06T13:23:09.618Z,35.03
2019-05-06T13:24:12.243Z,34.73
2019-05-06T13:25:20.386Z,34.76
2019-05-06T13:26:28.530Z,34.40
2019-05-06T13:27:36.649Z,33.59
2019-05-06T13:28:46.735Z,33.23
2019-05-06T13:29:55.143Z,32.80
2019-05-06T13:31:15.884Z,33.04
2019-05-06T13:32:15.006Z,32.53
2019-05-06T13:33:34.016Z,32.64
2019-05-06T13:34:42.452Z,32.70
2019-05-06T13:35:52.561Z,32.48
2019-05-06T13:37:00.534Z,32.62
2019-05-06T13:38:08.704Z,32.78
2019-05-06T13:39:17.209Z,32.72
2019-05-06T13:40:27.206Z,31.91
2019-05-06T13:41:34.940Z,32.22
2019-05-06T13:42:44.691Z,32.01
2019-05-06T13:43:57.172Z,32.20
2019-05-06T13:45:07.217Z,32.01
2019-05-06T13:46:19.937Z,32.18
2019-05-06T13:47:45.735Z,32.34
2019-05-06T13:48:59.467Z,32.53
2019-05-06T13:50:09.295Z,32.73
2019-05-06T13:51:33.972Z,32.26
2019-05-06T13:52:43.628Z,32.29
2019-05-06T13:53:52.873Z,32.34
2019-05-06T13:55:02.581Z,32.37
2019-05-06T13:56:12.075Z,31.82
2019-05-06T13:57:20.703Z,31.75
2019-05-06T13:58:29.231Z,31.56
2019-05-06T13:59:37.412Z,31.95
2019-05-06T14:00:46.286Z,32.07
2019-05-06T14:01:55.959Z,31.46
2019-05-06T14:03:04.743Z,32.04
2019-05-06T14:04:14.537Z,32.21
2019-05-06T14:05:23.032Z,32.50
2019-05-06T14:06:32.345Z,32.59
2019-05-06T14:07:43.034Z,32.24
2019-05-06T14:08:52.839Z,32.49
2019-05-06T14:10:02.502Z,32.76
2019-05-06T14:11:10.274Z,32.59
2019-05-06T14:12:18.464Z,32.58
2019-05-06T14:13:26.476Z,32.58
2019-05-06T14:14:34.690Z,32.72
2019-05-06T14:15:42.754Z,32.96
2019-05-06T14:16:53.800Z,33.20
2019-05-06T14:18:02.606Z,32.78
2019-05-06T14:19:12.974Z,32.54
2019-05-06T14:20:22.016Z,32.16
2019-05-06T14:21:32.363Z,32.10
2019-05-06T14:22:40.426Z,31.55
2019-05-06T14:23:48.867Z,31.68
2019-05-06T14:25:01.065Z,31.64
2019-05-06T14:26:16.735Z,31.55
2019-05-06T14:27:24.928Z,31.56
2019-05-06T14:28:42.785Z,31.67
2019-05-06T14:30:04.341Z,31.41
2019-05-06T14:31:15.660Z,31.75
2019-05-06T14:32:23.967Z,31.72
2019-05-06T14:33:32.451Z,31.75
2019-05-06T14:34:43.114Z,31.83
2019-05-06T14:35:52.598Z,31.94
2019-05-06T14:37:00.327Z,32.04
2019-05-06T14:38:08.945Z,31.99
2019-05-06T14:39:23.680Z,32.24
2019-05-06T14:40:33.117Z,32.77
2019-05-06T14:41:44.534Z,33.07
2019-05-06T14:42:53.199Z,33.08
2019-05-06T14:44:04.943Z,32.68
2019-05-06T14:45:14.734Z,32.26
2019-05-06T14:46:23.494Z,32.28
2019-05-06T14:47:33.570Z,32.19
2019-05-06T14:48:43.678Z,32.39
2019-05-06T14:49:52.956Z,32.42
2019-05-06T14:51:02.465Z,32.48
2019-05-06T14:52:13.149Z,32.10
2019-05-06T14:53:23.746Z,32.33
2019-05-06T14:54:32.929Z,32.37
2019-05-06T14:55:40.671Z,32.46
2019-05-06T14:56:50.242Z,32.60
2019-05-06T14:57:58.527Z,32.71
2019-05-06T14:59:07.513Z,32.38
2019-05-06T15:00:17.841Z,32.21
2019-05-06T15:01:25.995Z,32.10
2019-05-06T15:02:34.160Z,32.39
2019-05-06T15:03:43.070Z,32.61
2019-05-06T15:04:53.512Z,32.60
2019-05-06T15:06:02.627Z,32.19
2019-05-06T15:07:12.753Z,32.22
2019-05-06T15:08:22.476Z,32.35
2019-05-06T15:09:32.970Z,32.40
2019-05-06T15:10:42.817Z,32.20